createdAt,value
2023-04-07T00:00:46.208Z,8.41
2023-04-07T00:01:46.254Z,8.43
2023-04-07T00:02:46.216Z,8.43
2023-04-07T00:03:46.347Z,8.43
2023-04-07T00:04:46.237Z,8.44
2023-04-07T00:05:46.161Z,8.45
2023-04-07T00:06:46.157Z,8.45
2023-04-07T00:07:56.028Z,8.44
2023-04-07T00:08:46.160Z,8.38
2023-04-07T00:09:46.128Z,8.29
2023-04-07T00:10:46.115Z,8.20
2023-04-07T00:11:46.101Z,8.10
2023-04-07T00:12:46.126Z,8.05
2023-04-07T00:13:46.086Z,8.01
2023-04-07T00:14:46.062Z,7.97
2023-04-07T00:15:46.100Z,7.93
2023-04-07T00:16:46.013Z,7.89
2023-04-07T00:17:46.028Z,7.87
2023-04-07T00:18:46.029Z,7.86
2023-04-07T00:19:46.123Z,7.86
2023-04-07T00:20:46.004Z,7.85
2023-04-07T00:21:45.979Z,7.86
2023-04-07T00:22:45.922Z,7.89
2023-04-07T00:23:45.961Z,7.90
2023-04-07T00:24:45.920Z,7.95
2023-04-07T00:25:45.950Z,8.00
2023-04-07T00:26:45.890Z,8.04
2023-04-07T00:27:45.910Z,8.07
2023-04-07T00:28:45.845Z,8.10
2023-04-07T00:29:45.858Z,8.08
2023-04-07T00:30:45.825Z,8.07
2023-04-07T00:31:45.875Z,8.08
2023-04-07T00:32:45.825Z,8.08
2023-04-07T00:33:45.806Z,8.08
2023-04-07T00:34:45.814Z,8.07
2023-04-07T00:35:45.851Z,8.05
2023-04-07T00:36:45.752Z,8.05
2023-04-07T00:37:45.757Z,8.05
2023-04-07T00:38:45.718Z,8.04
2023-04-07T00:39:45.765Z,8.04
2023-04-07T00:40:45.713Z,8.04
2023-04-07T00:41:45.720Z,8.04
2023-04-07T00:42:45.660Z,8.04
2023-04-07T00:43:45.745Z,8.02
2023-04-07T00:44:45.652Z,8.00
2023-04-07T00:45:45.755Z,7.98
2023-04-07T00:46:45.729Z,7.93
2023-04-07T00:47:45.722Z,7.95
2023-04-07T00:48:45.588Z,7.92
2023-04-07T00:49:45.629Z,7.92
2023-04-07T00:50:45.578Z,7.93
2023-04-07T00:51:45.577Z,7.95
2023-04-07T00:52:45.540Z,7.97
2023-04-07T00:53:45.547Z,7.97
2023-04-07T00:54:45.534Z,7.95
2023-04-07T00:55:45.540Z,7.93
2023-04-07T00:56:45.504Z,7.93
2023-04-07T00:57:45.510Z,7.97
2023-04-07T00:58:45.480Z,7.98
2023-04-07T00:59:45.505Z,8.04
2023-04-07T01:00:45.434Z,8.04
2023-04-07T01:01:45.621Z,8.04
2023-04-07T01:02:51.788Z,8.05
2023-04-07T01:03:45.856Z,8.05
2023-04-07T01:04:45.529Z,8.07
2023-04-07T01:05:45.422Z,8.08
2023-04-07T01:06:45.360Z,8.08
2023-04-07T01:07:45.374Z,8.07
2023-04-07T01:08:45.346Z,8.01
2023-04-07T01:09:45.327Z,7.97
2023-04-07T01:10:45.296Z,7.89
2023-04-07T01:11:45.319Z,7.85
2023-04-07T01:12:45.271Z,7.79
2023-04-07T01:13:45.300Z,7.74
2023-04-07T01:14:45.249Z,7.71
2023-04-07T01:15:45.308Z,7.63
2023-04-07T01:16:45.236Z,7.55
2023-04-07T01:17:45.304Z,7.53
2023-04-07T01:18:45.192Z,7.50
2023-04-07T01:19:45.240Z,7.49
2023-04-07T01:20:45.165Z,7.46
2023-04-07T01:21:45.219Z,7.46
2023-04-07T01:22:45.162Z,7.43
2023-04-07T01:23:45.144Z,7.43
2023-04-07T01:24:45.112Z,7.43
2023-04-07T01:25:45.118Z,7.40
2023-04-07T01:26:45.115Z,7.42
2023-04-07T01:27:45.122Z,7.40
2023-04-07T01:28:45.070Z,7.42
2023-04-07T01:29:45.072Z,7.43
2023-04-07T01:30:45.102Z,7.46
2023-04-07T01:31:45.083Z,7.49
2023-04-07T01:32:45.105Z,7.50
2023-04-07T01:33:45.033Z,7.52
2023-04-07T01:34:44.979Z,7.55
2023-04-07T01:35:45.014Z,7.55
2023-04-07T01:36:44.953Z,7.57
2023-04-07T01:37:44.986Z,7.53
2023-04-07T01:38:44.938Z,7.52
2023-04-07T01:39:44.954Z,7.50
2023-04-07T01:40:44.907Z,7.50
2023-04-07T01:41:45.037Z,7.49
2023-04-07T01:42:44.897Z,7.48
2023-04-07T01:43:46.248Z,7.46
2023-04-07T01:44:44.852Z,7.43
2023-04-07T01:45:44.861Z,7.43
2023-04-07T01:46:44.873Z,7.40
2023-04-07T01:47:44.866Z,7.40
2023-04-07T01:48:44.829Z,7.39
2023-04-07T01:49:44.830Z,7.35
2023-04-07T01:50:44.790Z,7.34
2023-04-07T01:51:44.818Z,7.34
2023-04-07T01:52:44.781Z,7.34
2023-04-07T01:53:44.766Z,7.32
2023-04-07T01:54:44.740Z,7.34
2023-04-07T01:55:44.741Z,7.35
2023-04-07T01:56:44.723Z,7.35
2023-04-07T01:57:44.732Z,7.35
2023-04-07T01:58:44.675Z,7.35
2023-04-07T01:59:44.700Z,7.34
2023-04-07T02:00:44.691Z,7.35
2023-04-07T02:01:44.807Z,7.35
2023-04-07T02:02:44.805Z,7.34
2023-04-07T02:03:44.824Z,7.35
2023-04-07T02:04:44.601Z,7.40
2023-04-07T02:05:44.609Z,7.46
2023-04-07T02:06:44.583Z,7.50
2023-04-07T02:07:44.586Z,7.57
2023-04-07T02:08:44.586Z,7.61
2023-04-07T02:09:44.582Z,7.68
2023-04-07T02:10:44.517Z,7.71
2023-04-07T02:11:44.532Z,7.74
2023-04-07T02:12:44.493Z,7.77
2023-04-07T02:13:44.523Z,7.79
2023-04-07T02:14:44.524Z,7.82
2023-04-07T02:15:44.474Z,7.83
2023-04-07T02:16:45.789Z,7.85
2023-04-07T02:17:44.544Z,7.86
2023-04-07T02:18:44.433Z,7.89
2023-04-07T02:19:44.454Z,7.92
2023-04-07T02:20:44.397Z,7.95
2023-04-07T02:21:44.405Z,7.97
2023-04-07T02:22:44.361Z,7.98
2023-04-07T02:23:44.386Z,7.98
2023-04-07T02:24:44.344Z,8.00
2023-04-07T02:25:44.378Z,8.00
2023-04-07T02:26:44.321Z,8.01
2023-04-07T02:27:44.337Z,8.00
2023-04-07T02:28:44.296Z,7.97
2023-04-07T02:29:44.306Z,7.97
2023-04-07T02:30:44.291Z,7.98
2023-04-07T02:31:44.321Z,7.98
2023-04-07T02:32:44.335Z,7.98
2023-04-07T02:33:44.242Z,7.95
2023-04-07T02:34:44.226Z,7.89
2023-04-07T02:35:44.252Z,7.86
2023-04-07T02:36:44.196Z,7.83
2023-04-07T02:37:44.212Z,7.82
2023-04-07T02:38:44.161Z,7.79
2023-04-07T02:39:44.173Z,7.74
2023-04-07T02:40:44.137Z,7.69
2023-04-07T02:41:44.194Z,7.67
2023-04-07T02:42:44.115Z,7.68
2023-04-07T02:43:44.117Z,7.68
2023-04-07T02:44:44.085Z,7.68
2023-04-07T02:45:44.154Z,7.69
2023-04-07T02:46:44.047Z,7.67
2023-04-07T02:47:44.128Z,7.67
2023-04-07T02:48:44.029Z,7.69
2023-04-07T02:49:44.041Z,7.69
2023-04-07T02:50:44.006Z,7.72
2023-04-07T02:51:44.010Z,7.74
2023-04-07T02:52:43.982Z,7.74
2023-04-07T02:53:43.994Z,7.72
2023-04-07T02:54:43.964Z,7.71
2023-04-07T02:55:43.951Z,7.67
2023-04-07T02:56:43.919Z,7.68
2023-04-07T02:57:43.968Z,7.61
2023-04-07T02:58:43.889Z,7.58
2023-04-07T02:59:43.916Z,7.53
2023-04-07T03:00:43.899Z,7.52
2023-04-07T03:01:43.938Z,7.49
2023-04-07T03:02:44.063Z,7.46
2023-04-07T03:03:43.957Z,7.45
2023-04-07T03:04:43.819Z,7.43
2023-04-07T03:05:43.826Z,7.40
2023-04-07T03:06:43.801Z,7.40
2023-04-07T03:07:43.793Z,7.39
2023-04-07T03:08:43.794Z,7.39
2023-04-07T03:09:43.780Z,7.37
2023-04-07T03:10:43.767Z,7.40
2023-04-07T03:11:43.766Z,7.42
2023-04-07T03:12:43.716Z,7.46
2023-04-07T03:13:43.740Z,7.50
2023-04-07T03:14:43.729Z,7.53
2023-04-07T03:15:43.708Z,7.55
2023-04-07T03:16:43.699Z,7.53
2023-04-07T03:17:43.737Z,7.53
2023-04-07T03:18:43.647Z,7.53
2023-04-07T03:19:43.647Z,7.53
2023-04-07T03:20:43.635Z,7.57
2023-04-07T03:21:43.629Z,7.61
2023-04-07T03:22:43.579Z,7.63
2023-04-07T03:23:43.623Z,7.67
2023-04-07T03:24:43.593Z,7.67
2023-04-07T03:25:43.596Z,7.72
2023-04-07T03:26:43.539Z,7.77
2023-04-07T03:27:43.558Z,7.80
2023-04-07T03:28:43.508Z,7.85
2023-04-07T03:29:43.557Z,7.85
2023-04-07T03:30:43.575Z,7.86
2023-04-07T03:31:43.487Z,7.89
2023-04-07T03:32:43.477Z,7.90
2023-04-07T03:33:43.491Z,7.92
2023-04-07T03:34:43.465Z,7.93
2023-04-07T03:35:43.474Z,7.92
2023-04-07T03:36:43.403Z,7.89
2023-04-07T03:37:43.440Z,7.86
2023-04-07T03:38:43.372Z,7.80
2023-04-07T03:39:43.398Z,7.75
2023-04-07T03:40:43.357Z,7.71
2023-04-07T03:41:43.355Z,7.69
2023-04-07T03:42:43.369Z,7.67
2023-04-07T03:43:43.343Z,7.67
2023-04-07T03:44:43.306Z,7.68
2023-04-07T03:45:43.316Z,7.69
2023-04-07T03:46:43.320Z,7.68
2023-04-07T03:47:43.341Z,7.69
2023-04-07T03:48:43.260Z,7.68
2023-04-07T03:49:43.275Z,7.69
2023-04-07T03:50:43.227Z,7.69
2023-04-07T03:51:43.238Z,7.69
2023-04-07T03:52:43.206Z,7.68
2023-04-07T03:53:43.234Z,7.64
2023-04-07T03:54:43.167Z,7.67
2023-04-07T03:55:43.191Z,7.68
2023-04-07T03:56:43.152Z,7.69
2023-04-07T03:57:43.176Z,7.71
2023-04-07T03:58:43.137Z,7.72
2023-04-07T03:59:43.134Z,7.71
2023-04-07T04:00:43.119Z,7.71
2023-04-07T04:01:43.140Z,7.69
2023-04-07T04:02:43.168Z,7.71
2023-04-07T04:03:43.178Z,7.69
2023-04-07T04:04:43.099Z,7.69
2023-04-07T04:05:43.028Z,7.69
2023-04-07T04:06:43.100Z,7.68
2023-04-07T04:07:43.027Z,7.67
2023-04-07T04:08:43.027Z,7.63
2023-04-07T04:09:42.985Z,7.60
2023-04-07T04:10:42.998Z,7.55
2023-04-07T04:11:42.980Z,7.50
2023-04-07T04:12:42.973Z,7.48
2023-04-07T04:13:42.937Z,7.43
2023-04-07T04:14:42.933Z,7.40
2023-04-07T04:15:42.924Z,7.37
2023-04-07T04:16:42.949Z,7.37
2023-04-07T04:17:42.912Z,7.34
2023-04-07T04:18:42.894Z,7.34
2023-04-07T04:19:42.857Z,7.32
2023-04-07T04:20:42.878Z,7.32
2023-04-07T04:21:42.868Z,7.32
2023-04-07T04:22:42.842Z,7.34
2023-04-07T04:23:42.815Z,7.35
2023-04-07T04:24:42.804Z,7.37
2023-04-07T04:25:42.787Z,7.39
2023-04-07T04:26:42.808Z,7.43
2023-04-07T04:27:42.752Z,7.46
2023-04-07T04:28:42.766Z,7.49
2023-04-07T04:29:42.751Z,7.52
2023-04-07T04:30:42.751Z,7.55
2023-04-07T04:31:42.789Z,7.57
2023-04-07T04:32:42.770Z,7.58
2023-04-07T04:33:42.685Z,7.58
2023-04-07T04:34:42.675Z,7.58
2023-04-07T04:35:42.647Z,7.58
2023-04-07T04:36:42.719Z,7.61
2023-04-07T04:37:42.632Z,7.58
2023-04-07T04:38:42.625Z,7.58
2023-04-07T04:39:42.596Z,7.58
2023-04-07T04:40:42.630Z,7.58
2023-04-07T04:41:42.599Z,7.60
2023-04-07T04:42:42.596Z,7.61
2023-04-07T04:43:42.603Z,7.64
2023-04-07T04:44:42.565Z,7.69
2023-04-07T04:45:42.514Z,7.71
2023-04-07T04:46:42.584Z,7.74
2023-04-07T04:47:42.557Z,7.79
2023-04-07T04:48:42.506Z,7.80
2023-04-07T04:49:42.457Z,7.82
2023-04-07T04:50:42.518Z,7.82
2023-04-07T04:51:42.441Z,7.80
2023-04-07T04:52:42.457Z,7.79
2023-04-07T04:53:42.412Z,7.74
2023-04-07T04:54:42.453Z,7.69
2023-04-07T04:55:42.390Z,7.63
2023-04-07T04:56:42.417Z,7.55
2023-04-07T04:57:42.361Z,7.49
2023-04-07T04:58:42.381Z,7.43
2023-04-07T04:59:42.345Z,7.39
2023-04-07T05:00:42.401Z,7.37
2023-04-07T05:01:42.312Z,7.32
2023-04-07T05:02:42.544Z,7.27
2023-04-07T05:03:42.511Z,7.25
2023-04-07T05:04:42.440Z,7.27
2023-04-07T05:05:42.266Z,7.27
2023-04-07T05:06:42.303Z,7.28
2023-04-07T05:07:42.270Z,7.31
2023-04-07T05:08:42.242Z,7.34
2023-04-07T05:09:42.234Z,7.37
2023-04-07T05:10:42.221Z,7.40
2023-04-07T05:11:42.201Z,7.42
2023-04-07T05:12:42.192Z,7.43
2023-04-07T05:13:42.158Z,7.43
2023-04-07T05:14:42.190Z,7.43
2023-04-07T05:15:42.135Z,7.43
2023-04-07T05:16:42.305Z,7.46
2023-04-07T05:17:42.130Z,7.48
2023-04-07T05:18:42.115Z,7.50
2023-04-07T05:19:42.081Z,7.50
2023-04-07T05:20:42.095Z,7.52
2023-04-07T05:21:42.093Z,7.53
2023-04-07T05:22:42.084Z,7.55
2023-04-07T05:23:42.013Z,7.55
2023-04-07T05:24:42.040Z,7.55
2023-04-07T05:25:42.007Z,7.55
2023-04-07T05:26:42.039Z,7.57
2023-04-07T05:27:42.007Z,7.58
2023-04-07T05:28:41.990Z,7.61
2023-04-07T05:29:41.969Z,7.61
2023-04-07T05:30:41.953Z,7.61
2023-04-07T05:31:41.992Z,7.63
2023-04-07T05:32:42.056Z,7.63
2023-04-07T05:33:41.893Z,7.61
2023-04-07T05:34:41.931Z,7.58
2023-04-07T05:35:41.863Z,7.58
2023-04-07T05:36:41.881Z,7.55
2023-04-07T05:37:41.851Z,7.57
2023-04-07T05:38:41.859Z,7.55
2023-04-07T05:39:41.846Z,7.57
2023-04-07T05:40:41.842Z,7.58
2023-04-07T05:41:41.789Z,7.60
2023-04-07T05:42:41.804Z,7.61
2023-04-07T05:43:41.780Z,7.61
2023-04-07T05:44:41.808Z,7.61
2023-04-07T05:45:41.774Z,7.61
2023-04-07T05:46:41.744Z,7.61
2023-04-07T05:47:41.747Z,7.63
2023-04-07T05:48:41.729Z,7.63
2023-04-07T05:49:41.713Z,7.64
2023-04-07T05:50:41.697Z,7.63
2023-04-07T05:51:41.675Z,7.64
2023-04-07T05:52:41.680Z,7.63
2023-04-07T05:53:41.624Z,7.63
2023-04-07T05:54:41.678Z,7.60
2023-04-07T05:55:41.602Z,7.58
2023-04-07T05:56:41.625Z,7.60
2023-04-07T05:57:41.583Z,7.63
2023-04-07T05:58:41.607Z,7.60
2023-04-07T05:59:41.596Z,7.58
2023-04-07T06:00:41.581Z,7.58
2023-04-07T06:01:41.595Z,7.58
2023-04-07T06:02:41.671Z,7.61
2023-04-07T06:03:41.588Z,7.60
2023-04-07T06:04:41.539Z,7.60
2023-04-07T06:05:41.637Z,7.60
2023-04-07T06:06:41.520Z,7.60
2023-04-07T06:07:41.451Z,7.60
2023-04-07T06:08:41.475Z,7.60
2023-04-07T06:09:41.422Z,7.63
2023-04-07T06:10:41.440Z,7.64
2023-04-07T06:11:41.424Z,7.68
2023-04-07T06:12:41.399Z,7.69
2023-04-07T06:13:41.408Z,7.69
2023-04-07T06:14:41.403Z,7.68
2023-04-07T06:15:41.374Z,7.64
2023-04-07T06:16:41.416Z,7.60
2023-04-07T06:17:41.384Z,7.57
2023-04-07T06:18:41.349Z,7.58
2023-04-07T06:19:41.290Z,7.58
2023-04-07T06:20:41.316Z,7.60
2023-04-07T06:21:41.299Z,7.64
2023-04-07T06:22:41.295Z,7.68
2023-04-07T06:23:41.254Z,7.69
2023-04-07T06:24:41.285Z,7.69
2023-04-07T06:25:41.230Z,7.67
2023-04-07T06:26:41.278Z,7.63
2023-04-07T06:27:41.218Z,7.61
2023-04-07T06:28:41.208Z,7.58
2023-04-07T06:29:41.180Z,7.63
2023-04-07T06:30:41.252Z,7.67
2023-04-07T06:31:41.163Z,7.69
2023-04-07T06:32:41.201Z,7.69
2023-04-07T06:33:41.118Z,7.68
2023-04-07T06:34:41.135Z,7.68
2023-04-07T06:35:41.095Z,7.71
2023-04-07T06:36:41.136Z,7.75
2023-04-07T06:37:41.100Z,7.80
2023-04-07T06:38:41.090Z,7.85
2023-04-07T06:39:41.031Z,7.89
2023-04-07T06:40:41.071Z,7.90
2023-04-07T06:41:41.020Z,7.97
2023-04-07T06:42:41.064Z,8.04
2023-04-07T06:43:40.976Z,8.08
2023-04-07T06:44:41.001Z,8.12
2023-04-07T06:45:41.022Z,8.23
2023-04-07T06:46:40.983Z,8.28
2023-04-07T06:47:40.961Z,8.36
2023-04-07T06:48:40.970Z,8.41
2023-04-07T06:49:41.028Z,8.48
2023-04-07T06:50:40.927Z,8.55
2023-04-07T06:51:40.895Z,8.63
2023-04-07T06:52:40.904Z,8.68
2023-04-07T06:53:40.877Z,8.70
2023-04-07T06:54:40.871Z,8.76
2023-04-07T06:55:40.846Z,8.77
2023-04-07T06:56:40.846Z,8.79
2023-04-07T06:57:40.817Z,8.81
2023-04-07T06:58:40.808Z,8.86
2023-04-07T06:59:40.800Z,8.91
2023-04-07T07:00:40.903Z,8.96
2023-04-07T07:01:40.866Z,8.98
2023-04-07T07:02:40.958Z,9.02
2023-04-07T07:03:40.801Z,9.04
2023-04-07T07:04:40.774Z,9.10
2023-04-07T07:05:40.705Z,9.14
2023-04-07T07:06:40.742Z,9.18
2023-04-07T07:07:40.692Z,9.21
2023-04-07T07:08:40.694Z,9.17
2023-04-07T07:09:40.731Z,9.08
2023-04-07T07:10:40.661Z,9.02
2023-04-07T07:11:40.652Z,9.01
2023-04-07T07:12:40.651Z,9.04
2023-04-07T07:13:40.607Z,9.08
2023-04-07T07:14:40.606Z,9.17
2023-04-07T07:15:40.620Z,9.29
2023-04-07T07:16:40.606Z,9.33
2023-04-07T07:17:40.620Z,9.50
2023-04-07T07:18:40.564Z,9.64
2023-04-07T07:19:40.532Z,9.72
2023-04-07T07:20:40.542Z,9.84
2023-04-07T07:21:40.529Z,9.96
2023-04-07T07:22:40.506Z,10.08
2023-04-07T07:23:40.479Z,10.11
2023-04-07T07:24:40.542Z,10.05
2023-04-07T07:25:40.435Z,9.97
2023-04-07T07:26:41.438Z,9.94
2023-04-07T07:27:40.463Z,9.94
2023-04-07T07:28:40.438Z,9.93
2023-04-07T07:29:40.390Z,9.94
2023-04-07T07:30:40.410Z,9.94
2023-04-07T07:31:40.597Z,9.91
2023-04-07T07:32:40.443Z,9.87
2023-04-07T07:33:40.395Z,9.86
2023-04-07T07:34:40.365Z,9.84
2023-04-07T07:35:40.345Z,9.91
2023-04-07T07:36:40.343Z,9.96
2023-04-07T07:37:40.322Z,10.04
2023-04-07T07:38:40.296Z,10.07
2023-04-07T07:39:40.272Z,10.09
2023-04-07T07:40:40.283Z,10.12
2023-04-07T07:41:40.241Z,10.08
2023-04-07T07:42:40.270Z,10.09
2023-04-07T07:43:40.244Z,10.14
2023-04-07T07:44:40.225Z,10.17
2023-04-07T07:45:40.172Z,10.20
2023-04-07T07:46:40.311Z,10.26
2023-04-07T07:47:40.207Z,10.27
2023-04-07T07:48:40.183Z,10.29
2023-04-07T07:49:40.127Z,10.33
2023-04-07T07:50:40.133Z,10.41
2023-04-07T07:51:40.098Z,10.40
2023-04-07T07:52:40.124Z,10.47
2023-04-07T07:53:40.085Z,10.52
2023-04-07T07:54:40.083Z,10.59
2023-04-07T07:55:40.054Z,10.84
2023-04-07T07:56:40.066Z,11.04
2023-04-07T07:57:40.027Z,11.15
2023-04-07T07:58:40.079Z,11.19
2023-04-07T07:59:39.988Z,11.21
2023-04-07T08:00:40.007Z,11.18
2023-04-07T08:01:40.065Z,11.18
2023-04-07T08:02:40.110Z,11.15
2023-04-07T08:03:40.061Z,11.14
2023-04-07T08:04:40.081Z,11.11
2023-04-07T08:05:39.945Z,11.14
2023-04-07T08:06:39.921Z,11.11
2023-04-07T08:07:39.889Z,11.10
2023-04-07T08:08:39.913Z,11.06
2023-04-07T08:09:39.909Z,11.06
2023-04-07T08:10:39.877Z,11.06
2023-04-07T08:11:39.830Z,11.06
2023-04-07T08:12:39.857Z,11.02
2023-04-07T08:13:39.820Z,10.99
2023-04-07T08:14:39.812Z,11.00
2023-04-07T08:15:39.794Z,10.97
2023-04-07T08:16:39.820Z,10.96
2023-04-07T08:17:39.785Z,10.96
2023-04-07T08:18:39.735Z,10.97
2023-04-07T08:19:39.774Z,10.97
2023-04-07T08:20:39.742Z,10.97
2023-04-07T08:21:39.717Z,10.96
2023-04-07T08:22:39.836Z,10.96
2023-04-07T08:23:39.695Z,10.96
2023-04-07T08:24:39.659Z,10.96
2023-04-07T08:25:39.677Z,10.97
2023-04-07T08:26:39.671Z,10.97
2023-04-07T08:27:39.669Z,11.00
2023-04-07T08:28:39.646Z,11.00
2023-04-07T08:29:39.639Z,11.02
2023-04-07T08:30:39.601Z,11.04
2023-04-07T08:31:39.743Z,11.03
2023-04-07T08:32:39.560Z,11.00
2023-04-07T08:33:39.579Z,10.94
2023-04-07T08:34:39.518Z,10.85
2023-04-07T08:35:39.595Z,10.81
2023-04-07T08:36:39.589Z,10.78
2023-04-07T08:37:39.506Z,10.76
2023-04-07T08:38:39.468Z,10.71
2023-04-07T08:39:39.512Z,10.68
2023-04-07T08:40:39.691Z,10.66
2023-04-07T08:41:39.462Z,10.63
2023-04-07T08:42:39.434Z,10.64
2023-04-07T08:43:39.421Z,10.64
2023-04-07T08:44:39.401Z,10.66
2023-04-07T08:45:39.424Z,10.67
2023-04-07T08:46:39.404Z,10.70
2023-04-07T08:47:39.427Z,10.78
2023-04-07T08:48:39.337Z,10.81
2023-04-07T08:49:39.379Z,10.82
2023-04-07T08:50:39.332Z,10.88
2023-04-07T08:51:39.349Z,10.89
2023-04-07T08:52:39.332Z,10.88
2023-04-07T08:53:39.297Z,10.82
2023-04-07T08:54:39.255Z,10.81
2023-04-07T08:55:39.286Z,10.84
2023-04-07T08:56:39.238Z,10.85
2023-04-07T08:57:39.258Z,10.84
2023-04-07T08:58:39.231Z,10.82
2023-04-07T08:59:39.262Z,10.82
2023-04-07T09:00:39.194Z,10.84
2023-04-07T09:01:39.312Z,10.84
2023-04-07T09:02:39.211Z,10.84
2023-04-07T09:03:39.387Z,10.88
2023-04-07T09:04:39.115Z,10.89
2023-04-07T09:05:39.138Z,10.92
2023-04-07T09:06:39.117Z,11.09
2023-04-07T09:07:39.096Z,11.29
2023-04-07T09:08:39.067Z,11.52
2023-04-07T09:09:39.120Z,11.75
2023-04-07T09:10:39.046Z,11.88
2023-04-07T09:11:39.122Z,11.99
2023-04-07T09:12:39.060Z,11.95
2023-04-07T09:13:39.018Z,12.10
2023-04-07T09:14:39.018Z,12.27
2023-04-07T09:15:39.076Z,12.46
2023-04-07T09:16:39.036Z,12.62
2023-04-07T09:17:39.006Z,12.75
2023-04-07T09:18:38.973Z,12.95
2023-04-07T09:19:38.944Z,13.14
2023-04-07T09:20:38.906Z,13.30
2023-04-07T09:21:39.034Z,13.46
2023-04-07T09:22:38.908Z,13.57
2023-04-07T09:23:38.896Z,13.66
2023-04-07T09:24:38.934Z,13.62
2023-04-07T09:25:38.878Z,13.62
2023-04-07T09:26:38.824Z,13.62
2023-04-07T09:27:38.841Z,13.60
2023-04-07T09:28:38.806Z,13.55
2023-04-07T09:29:38.854Z,13.45
2023-04-07T09:30:38.817Z,13.30
2023-04-07T09:31:38.834Z,13.22
2023-04-07T09:32:39.184Z,13.11
2023-04-07T09:33:38.859Z,13.22
2023-04-07T09:34:40.961Z,13.45
2023-04-07T09:35:38.793Z,13.62
2023-04-07T09:36:38.713Z,13.64
2023-04-07T09:37:38.732Z,13.55
2023-04-07T09:38:38.671Z,13.28
2023-04-07T09:39:38.735Z,13.05
2023-04-07T09:40:38.685Z,12.97
2023-04-07T09:41:38.687Z,12.92
2023-04-07T09:42:38.631Z,12.79
2023-04-07T09:43:38.650Z,12.82
2023-04-07T09:44:38.613Z,12.86
2023-04-07T09:45:38.605Z,12.92
2023-04-07T09:46:38.625Z,12.95
2023-04-07T09:47:38.603Z,13.01
2023-04-07T09:48:38.552Z,13.01
2023-04-07T09:49:38.558Z,13.01
2023-04-07T09:50:38.512Z,13.04
2023-04-07T09:51:38.569Z,13.10
2023-04-07T09:52:38.493Z,13.17
2023-04-07T09:53:38.528Z,13.19
2023-04-07T09:54:38.482Z,13.22
2023-04-07T09:55:38.479Z,13.23
2023-04-07T09:56:38.444Z,13.19
2023-04-07T09:57:38.467Z,13.12
2023-04-07T09:58:38.463Z,13.10
2023-04-07T09:59:38.442Z,13.08
2023-04-07T10:00:38.400Z,12.97
2023-04-07T10:01:38.496Z,12.90
2023-04-07T10:02:38.431Z,12.92
2023-04-07T10:03:38.603Z,12.95
2023-04-07T10:04:38.392Z,13.01
2023-04-07T10:05:38.346Z,13.08
2023-04-07T10:06:38.327Z,13.22
2023-04-07T10:07:38.764Z,13.25
2023-04-07T10:08:38.334Z,13.26
2023-04-07T10:09:38.325Z,13.23
2023-04-07T10:10:38.267Z,13.25
2023-04-07T10:11:38.269Z,13.29
2023-04-07T10:12:38.245Z,13.30
2023-04-07T10:13:38.259Z,13.33
2023-04-07T10:14:39.804Z,13.32
2023-04-07T10:15:38.216Z,13.36
2023-04-07T10:16:38.211Z,13.39
2023-04-07T10:17:38.213Z,13.39
2023-04-07T10:18:38.200Z,13.41
2023-04-07T10:19:38.179Z,13.36
2023-04-07T10:20:38.149Z,13.39
2023-04-07T10:21:38.205Z,13.39
2023-04-07T10:22:38.113Z,13.38
2023-04-07T10:23:38.105Z,13.36
2023-04-07T10:24:38.074Z,13.38
2023-04-07T10:25:38.113Z,13.42
2023-04-07T10:26:39.557Z,13.44
2023-04-07T10:27:38.106Z,13.32
2023-04-07T10:28:38.023Z,13.26
2023-04-07T10:29:38.037Z,13.26
2023-04-07T10:30:38.037Z,13.32
2023-04-07T10:31:38.046Z,13.42
2023-04-07T10:32:38.036Z,13.48
2023-04-07T10:33:37.980Z,13.59
2023-04-07T10:34:37.967Z,13.66
2023-04-07T10:35:37.976Z,13.64
2023-04-07T10:36:38.028Z,13.49
2023-04-07T10:37:37.995Z,13.55
2023-04-07T10:38:37.898Z,13.67
2023-04-07T10:39:37.921Z,13.79
2023-04-07T10:40:37.892Z,13.91
2023-04-07T10:41:37.883Z,13.91
2023-04-07T10:42:37.938Z,13.89
2023-04-07T10:43:37.859Z,13.88
2023-04-07T10:44:37.925Z,13.91
2023-04-07T10:45:37.852Z,13.95
2023-04-07T10:46:37.988Z,13.95
2023-04-07T10:47:37.853Z,13.89
2023-04-07T10:48:37.774Z,13.84
2023-04-07T10:49:37.793Z,13.82
2023-04-07T10:50:37.725Z,13.73
2023-04-07T10:51:37.767Z,13.73
2023-04-07T10:52:37.708Z,13.77
2023-04-07T10:53:37.732Z,13.79
2023-04-07T10:54:37.699Z,13.85
2023-04-07T10:55:37.766Z,13.92
2023-04-07T10:56:37.682Z,13.89
2023-04-07T10:57:37.675Z,13.87
2023-04-07T10:58:37.652Z,13.91
2023-04-07T10:59:37.642Z,13.97
2023-04-07T11:00:37.611Z,13.97
2023-04-07T11:01:37.678Z,13.92
2023-04-07T11:02:37.713Z,13.84
2023-04-07T11:03:37.781Z,13.79
2023-04-07T11:04:37.670Z,13.75
2023-04-07T11:05:37.602Z,13.63
2023-04-07T11:06:37.530Z,13.67
2023-04-07T11:07:37.541Z,13.71
2023-04-07T11:08:37.523Z,13.77
2023-04-07T11:09:37.518Z,13.88
2023-04-07T11:10:37.501Z,13.97
2023-04-07T11:11:37.504Z,14.02
2023-04-07T11:12:37.440Z,13.95
2023-04-07T11:13:37.456Z,13.99
2023-04-07T11:14:37.456Z,13.95
2023-04-07T11:15:40.230Z,13.96
2023-04-07T11:16:37.408Z,14.00
2023-04-07T11:17:37.510Z,14.03
2023-04-07T11:18:37.366Z,14.10
2023-04-07T11:19:37.396Z,14.17
2023-04-07T11:20:37.383Z,14.21
2023-04-07T11:21:37.402Z,14.25
2023-04-07T11:22:37.315Z,14.27
2023-04-07T11:23:37.335Z,14.29
2023-04-07T11:24:37.307Z,14.32
2023-04-07T11:25:37.294Z,14.33
2023-04-07T11:26:37.269Z,14.37
2023-04-07T11:27:37.300Z,14.40
2023-04-07T11:28:37.241Z,14.42
2023-04-07T11:29:37.269Z,14.45
2023-04-07T11:30:37.194Z,14.50
2023-04-07T11:31:37.278Z,14.52
2023-04-07T11:32:37.228Z,14.52
2023-04-07T11:33:37.198Z,14.39
2023-04-07T11:34:37.158Z,14.29
2023-04-07T11:35:37.202Z,14.32
2023-04-07T11:36:37.161Z,14.33
2023-04-07T11:37:37.173Z,14.29
2023-04-07T11:38:37.120Z,14.24
2023-04-07T11:39:37.118Z,14.14
2023-04-07T11:40:37.092Z,14.07
2023-04-07T11:41:37.160Z,14.07
2023-04-07T11:42:37.084Z,14.09
2023-04-07T11:43:37.077Z,14.15
2023-04-07T11:44:37.037Z,14.21
2023-04-07T11:45:37.033Z,14.22
2023-04-07T11:46:37.043Z,14.18
2023-04-07T11:47:37.161Z,14.21
2023-04-07T11:48:36.987Z,14.20
2023-04-07T11:49:36.996Z,14.22
2023-04-07T11:50:36.942Z,14.24
2023-04-07T11:51:36.988Z,14.20
2023-04-07T11:52:36.952Z,14.14
2023-04-07T11:53:36.938Z,14.17
2023-04-07T11:54:36.919Z,14.15
2023-04-07T11:55:36.902Z,14.21
2023-04-07T11:56:36.870Z,14.27
2023-04-07T11:57:36.896Z,14.28
2023-04-07T11:58:36.860Z,14.27
2023-04-07T11:59:36.862Z,14.29
2023-04-07T12:00:36.816Z,14.35
2023-04-07T12:01:36.892Z,14.39
2023-04-07T12:02:36.949Z,14.43
2023-04-07T12:03:37.001Z,14.39
2023-04-07T12:04:36.896Z,14.25
2023-04-07T12:05:36.811Z,14.20
2023-04-07T12:06:36.763Z,14.14
2023-04-07T12:07:36.811Z,14.10
2023-04-07T12:08:36.722Z,14.10
2023-04-07T12:09:36.749Z,14.10
2023-04-07T12:10:36.703Z,14.10
2023-04-07T12:11:36.716Z,14.12
2023-04-07T12:12:36.696Z,14.15
2023-04-07T12:13:36.684Z,14.15
2023-04-07T12:14:36.660Z,14.14
2023-04-07T12:15:36.670Z,14.02
2023-04-07T12:16:36.677Z,13.91
2023-04-07T12:17:36.667Z,13.82
2023-04-07T12:18:36.613Z,13.81
2023-04-07T12:19:36.663Z,13.82
2023-04-07T12:20:37.586Z,13.87
2023-04-07T12:21:36.562Z,13.89
2023-04-07T12:22:36.574Z,13.92
2023-04-07T12:23:36.564Z,14.00
2023-04-07T12:24:36.529Z,14.06
2023-04-07T12:25:36.524Z,14.17
2023-04-07T12:26:36.476Z,14.32
2023-04-07T12:27:43.423Z,14.50
2023-04-07T12:28:36.495Z,14.58
2023-04-07T12:29:36.463Z,14.68
2023-04-07T12:30:36.455Z,14.70
2023-04-07T12:31:36.485Z,14.78
2023-04-07T12:32:36.457Z,14.91
2023-04-07T12:33:36.392Z,14.99
2023-04-07T12:34:36.439Z,15.06
2023-04-07T12:35:36.403Z,15.11
2023-04-07T12:36:36.368Z,15.20
2023-04-07T12:37:36.326Z,15.23
2023-04-07T12:38:36.369Z,15.27
2023-04-07T12:39:36.316Z,15.31
2023-04-07T12:40:36.340Z,15.35
2023-04-07T12:41:36.292Z,15.32
2023-04-07T12:42:36.322Z,15.29
2023-04-07T12:43:36.305Z,15.29
2023-04-07T12:44:36.280Z,15.25
2023-04-07T12:45:36.265Z,15.21
2023-04-07T12:46:36.240Z,15.11
2023-04-07T12:47:36.262Z,15.01
2023-04-07T12:48:36.218Z,14.96
2023-04-07T12:49:36.210Z,14.94
2023-04-07T12:50:36.193Z,14.91
2023-04-07T12:51:36.171Z,14.86
2023-04-07T12:52:36.202Z,14.84
2023-04-07T12:53:36.158Z,14.75
2023-04-07T12:54:36.230Z,14.68
2023-04-07T12:55:36.112Z,14.61
2023-04-07T12:56:36.142Z,14.57
2023-04-07T12:57:36.079Z,14.51
2023-04-07T12:58:36.097Z,14.43
2023-04-07T12:59:36.074Z,14.29
2023-04-07T13:00:36.081Z,14.21
2023-04-07T13:01:36.147Z,14.15
2023-04-07T13:02:36.125Z,14.14
2023-04-07T13:03:36.207Z,14.14
2023-04-07T13:04:36.062Z,14.10
2023-04-07T13:05:36.021Z,14.14
2023-04-07T13:06:35.985Z,14.06
2023-04-07T13:07:36.099Z,13.99